sensor_id;sensor_type;location;lat;lon;timestamp;P1;durP1;ratioP1;P2;durP2;ratioP2
14094;SDS011;18096;48.142;16.290;2022-12-11T00:02:19;29.25;;;16.80;;
14094;SDS011;18096;48.142;16.290;2022-12-11T00:04:45;33.55;;;16.50;;
14094;SDS011;18096;48.142;16.290;2022-12-11T00:07:10;26.40;;;15.85;;
14094;SDS011;18096;48.142;16.290;2022-12-11T00:09:36;33.53;;;16.20;;
14094;SDS011;18096;48.142;16.290;2022-12-11T00:12:02;27.52;;;15.38;;
14094;SDS011;18096;48.142;16.290;2022-12-11T00:14:29;35.10;;;17.02;;
14094;SDS011;18096;48.142;16.290;2022-12-11T00:16:56;28.30;;;16.47;;
14094;SDS011;18096;48.142;16.290;2022-12-11T00:19:21;30.90;;;15.37;;
14094;SDS011;18096;48.142;16.290;2022-12-11T00:21:47;28.60;;;15.57;;
14094;SDS011;18096;48.142;16.290;2022-12-11T00:24:13;29.13;;;14.83;;
14094;SDS011;18096;48.142;16.290;2022-12-11T00:26:38;24.63;;;15.50;;
14094;SDS011;18096;48.142;16.290;2022-12-11T00:29:04;30.95;;;15.02;;
14094;SDS011;18096;48.142;16.290;2022-12-11T00:31:32;27.45;;;14.85;;
14094;SDS011;18096;48.142;16.290;2022-12-11T00:33:59;34.58;;;15.85;;
14094;SDS011;18096;48.142;16.290;2022-12-11T00:36:25;24.83;;;15.90;;
14094;SDS011;18096;48.142;16.290;2022-12-11T00:38:52;28.60;;;15.20;;
14094;SDS011;18096;48.142;16.290;2022-12-11T00:41:18;28.83;;;14.25;;
14094;SDS011;18096;48.142;16.290;2022-12-11T00:43:44;26.92;;;13.82;;
14094;SDS011;18096;48.142;16.290;2022-12-11T00:46:10;27.23;;;14.25;;
14094;SDS011;18096;48.142;16.290;2022-12-11T00:48:36;26.17;;;14.75;;
14094;SDS011;18096;48.142;16.290;2022-12-11T00:51:02;26.85;;;14.57;;
14094;SDS011;18096;48.142;16.290;2022-12-11T00:53:28;28.27;;;14.02;;
14094;SDS011;18096;48.142;16.290;2022-12-11T00:55:54;26.02;;;13.75;;
14094;SDS011;18096;48.142;16.290;2022-12-11T00:58:19;26.40;;;14.30;;
14094;SDS011;18096;48.142;16.290;2022-12-11T01:00:46;25.75;;;14.57;;
14094;SDS011;18096;48.142;16.290;2022-12-11T01:03:13;27.25;;;13.52;;
14094;SDS011;18096;48.142;16.290;2022-12-11T01:05:39;22.58;;;13.50;;
14094;SDS011;18096;48.142;16.290;2022-12-11T01:08:05;25.60;;;14.50;;
14094;SDS011;18096;48.142;16.290;2022-12-11T01:10:31;26.52;;;14.15;;
14094;SDS011;18096;48.142;16.290;2022-12-11T01:13:01;22.50;;;12.50;;
14094;SDS011;18096;48.142;16.290;2022-12-11T01:15:37;23.60;;;13.13;;
14094;SDS011;18096;48.142;16.290;2022-12-11T01:18:04;25.58;;;14.05;;
14094;SDS011;18096;48.142;16.290;2022-12-11T01:20:30;31.48;;;15.07;;
14094;SDS011;18096;48.142;16.290;2022-12-11T01:22:57;27.10;;;14.15;;
14094;SDS011;18096;48.142;16.290;2022-12-11T01:25:25;21.45;;;13.50;;
14094;SDS011;18096;48.142;16.290;2022-12-11T01:27:52;22.33;;;14.60;;
14094;SDS011;18096;48.142;16.290;2022-12-11T01:30:20;24.95;;;14.43;;
14094;SDS011;18096;48.142;16.290;2022-12-11T01:32:47;32.20;;;14.77;;
14094;SDS011;18096;48.142;16.290;2022-12-11T01:35:13;22.50;;;14.00;;
14094;SDS011;18096;48.142;16.290;2022-12-11T01:37:39;26.65;;;15.18;;
14094;SDS011;18096;48.142;16.290;2022-12-11T01:40:06;21.38;;;13.40;;
14094;SDS011;18096;48.142;16.290;2022-12-11T01:42:32;22.27;;;13.45;;
14094;SDS011;18096;48.142;16.290;2022-12-11T01:47:45;22.00;;;13.77;;
14094;SDS011;18096;48.142;16.290;2022-12-11T01:50:17;23.42;;;13.40;;
14094;SDS011;18096;48.142;16.290;2022-12-11T01:52:43;20.20;;;12.38;;
14094;SDS011;18096;48.142;16.290;2022-12-11T01:55:11;22.90;;;12.10;;
14094;SDS011;18096;48.142;16.290;2022-12-11T01:57:38;25.02;;;13.02;;
14094;SDS011;18096;48.142;16.290;2022-12-11T02:00:06;23.50;;;12.65;;
14094;SDS011;18096;48.142;16.290;2022-12-11T02:02:32;23.80;;;12.23;;
14094;SDS011;18096;48.142;16.290;2022-12-11T02:04:58;21.07;;;11.90;;
14094;SDS011;18096;48.142;16.290;2022-12-11T02:07:26;24.52;;;14.20;;
14094;SDS011;18096;48.142;16.290;2022-12-11T02:09:54;27.15;;;13.35;;
14094;SDS011;18096;48.142;16.290;2022-12-11T02:17:46;22.73;;;12.10;;
14094;SDS011;18096;48.142;16.290;2022-12-11T02:31:09;22.80;;;13.05;;
14094;SDS011;18096;48.142;16.290;2022-12-11T02:34:00;22.92;;;13.05;;
14094;SDS011;18096;48.142;16.290;2022-12-11T02:36:27;18.83;;;12.13;;
14094;SDS011;18096;48.142;16.290;2022-12-11T02:38:57;25.77;;;13.07;;
14094;SDS011;18096;48.142;16.290;2022-12-11T02:41:26;17.00;;;11.27;;
14094;SDS011;18096;48.142;16.290;2022-12-11T02:43:54;24.33;;;12.23;;
14094;SDS011;18096;48.142;16.290;2022-12-11T02:46:21;18.50;;;10.98;;
14094;SDS011;18096;48.142;16.290;2022-12-11T02:48:49;19.30;;;11.32;;
14094;SDS011;18096;48.142;16.290;2022-12-11T02:51:20;19.00;;;11.48;;
14094;SDS011;18096;48.142;16.290;2022-12-11T02:53:48;15.90;;;10.07;;
14094;SDS011;18096;48.142;16.290;2022-12-11T02:56:19;21.33;;;10.00;;
14094;SDS011;18096;48.142;16.290;2022-12-11T02:58:49;17.60;;;9.23;;
14094;SDS011;18096;48.142;16.290;2022-12-11T03:01:19;15.13;;;9.20;;
14094;SDS011;18096;48.142;16.290;2022-12-11T03:03:45;15.77;;;9.95;;
14094;SDS011;18096;48.142;16.290;2022-12-11T03:06:12;14.20;;;9.07;;
14094;SDS011;18096;48.142;16.290;2022-12-11T03:08:42;12.63;;;8.77;;
14094;SDS011;18096;48.142;16.290;2022-12-11T03:11:11;17.45;;;8.60;;
14094;SDS011;18096;48.142;16.290;2022-12-11T03:13:38;15.68;;;9.27;;
14094;SDS011;18096;48.142;16.290;2022-12-11T03:18:38;15.10;;;8.63;;
14094;SDS011;18096;48.142;16.290;2022-12-11T03:26:29;11.80;;;7.60;;
14094;SDS011;18096;48.142;16.290;2022-12-11T03:29:02;9.20;;;6.10;;
14094;SDS011;18096;48.142;16.290;2022-12-11T03:34:31;10.68;;;5.85;;
14094;SDS011;18096;48.142;16.290;2022-12-11T03:37:08;8.65;;;6.50;;
14094;SDS011;18096;48.142;16.290;2022-12-11T03:39:36;9.57;;;6.75;;
14094;SDS011;18096;48.142;16.290;2022-12-11T03:42:07;9.80;;;6.63;;
14094;SDS011;18096;48.142;16.290;2022-12-11T03:44:36;10.20;;;7.10;;
14094;SDS011;18096;48.142;16.290;2022-12-11T03:47:02;12.27;;;6.80;;
14094;SDS011;18096;48.142;16.290;2022-12-11T03:49:39;9.90;;;7.00;;
14094;SDS011;18096;48.142;16.290;2022-12-11T03:52:08;12.02;;;7.43;;
14094;SDS011;18096;48.142;16.290;2022-12-11T03:54:35;12.70;;;8.65;;
14094;SDS011;18096;48.142;16.290;2022-12-11T03:57:02;10.00;;;7.53;;
14094;SDS011;18096;48.142;16.290;2022-12-11T03:59:29;14.30;;;8.17;;
14094;SDS011;18096;48.142;16.290;2022-12-11T04:01:55;11.00;;;7.60;;
14094;SDS011;18096;48.142;16.290;2022-12-11T04:04:21;10.93;;;7.72;;
14094;SDS011;18096;48.142;16.290;2022-12-11T04:06:46;14.32;;;9.38;;
14094;SDS011;18096;48.142;16.290;2022-12-11T04:09:12;14.15;;;8.48;;
14094;SDS011;18096;48.142;16.290;2022-12-11T04:11:38;15.23;;;8.80;;
14094;SDS011;18096;48.142;16.290;2022-12-11T04:14:05;17.97;;;9.73;;
14094;SDS011;18096;48.142;16.290;2022-12-11T04:16:51;17.33;;;9.30;;
14094;SDS011;18096;48.142;16.290;2022-12-11T04:19:17;14.63;;;8.40;;
14094;SDS011;18096;48.142;16.290;2022-12-11T04:22:02;17.02;;;9.05;;
14094;SDS011;18096;48.142;16.290;2022-12-11T04:24:47;16.58;;;9.50;;
14094;SDS011;18096;48.142;16.290;2022-12-11T04:27:14;14.43;;;8.38;;
14094;SDS011;18096;48.142;16.290;2022-12-11T04:30:00;14.33;;;9.03;;
14094;SDS011;18096;48.142;16.290;2022-12-11T04:32:27;20.08;;;9.52;;
14094;SDS011;18096;48.142;16.290;2022-12-11T04:34:52;15.70;;;8.40;;
14094;SDS011;18096;48.142;16.290;2022-12-11T04:37:18;15.13;;;9.70;;
14094;SDS011;18096;48.142;16.290;2022-12-11T04:39:43;12.20;;;7.65;;
14094;SDS011;18096;48.142;16.290;2022-12-11T04:42:09;10.93;;;8.33;;
14094;SDS011;18096;48.142;16.290;2022-12-11T04:44:35;12.37;;;8.20;;
14094;SDS011;18096;48.142;16.290;2022-12-11T04:47:00;13.67;;;8.83;;
14094;SDS011;18096;48.142;16.290;2022-12-11T04:49:26;13.05;;;8.88;;
14094;SDS011;18096;48.142;16.290;2022-12-11T04:51:51;11.25;;;7.65;;
14094;SDS011;18096;48.142;16.290;2022-12-11T04:54:17;14.57;;;7.97;;
14094;SDS011;18096;48.142;16.290;2022-12-11T04:56:43;14.20;;;8.20;;
14094;SDS011;18096;48.142;16.290;2022-12-11T04:59:08;10.05;;;6.97;;
14094;SDS011;18096;48.142;16.290;2022-12-11T05:01:34;10.18;;;7.30;;
14094;SDS011;18096;48.142;16.290;2022-12-11T05:04:00;11.50;;;7.10;;
14094;SDS011;18096;48.142;16.290;2022-12-11T05:06:25;10.17;;;7.20;;
14094;SDS011;18096;48.142;16.290;2022-12-11T05:08:51;8.63;;;6.47;;
14094;SDS011;18096;48.142;16.290;2022-12-11T05:11:17;9.63;;;6.60;;
14094;SDS011;18096;48.142;16.290;2022-12-11T05:13:43;9.67;;;7.23;;
14094;SDS011;18096;48.142;16.290;2022-12-11T05:16:10;9.30;;;7.03;;
14094;SDS011;18096;48.142;16.290;2022-12-11T05:18:37;8.50;;;6.65;;
14094;SDS011;18096;48.142;16.290;2022-12-11T05:21:04;11.17;;;6.87;;
14094;SDS011;18096;48.142;16.290;2022-12-11T05:23:32;9.98;;;6.90;;
14094;SDS011;18096;48.142;16.290;2022-12-11T05:25:59;12.75;;;7.15;;
14094;SDS011;18096;48.142;16.290;2022-12-11T05:28:27;13.63;;;7.93;;
14094;SDS011;18096;48.142;16.290;2022-12-11T05:31:02;9.65;;;6.88;;
14094;SDS011;18096;48.142;16.290;2022-12-11T05:33:47;10.60;;;7.30;;
14094;SDS011;18096;48.142;16.290;2022-12-11T05:36:18;15.50;;;7.25;;
14094;SDS011;18096;48.142;16.290;2022-12-11T05:38:52;10.13;;;7.40;;
14094;SDS011;18096;48.142;16.290;2022-12-11T05:41:19;12.25;;;7.85;;
14094;SDS011;18096;48.142;16.290;2022-12-11T05:43:46;12.65;;;7.40;;
14094;SDS011;18096;48.142;16.290;2022-12-11T05:46:20;13.27;;;8.05;;
14094;SDS011;18096;48.142;16.290;2022-12-11T05:48:50;13.02;;;8.18;;
14094;SDS011;18096;48.142;16.290;2022-12-11T05:51:18;10.52;;;8.32;;
14094;SDS011;18096;48.142;16.290;2022-12-11T05:53:45;11.35;;;8.23;;
14094;SDS011;18096;48.142;16.290;2022-12-11T05:56:12;12.55;;;8.68;;
14094;SDS011;18096;48.142;16.290;2022-12-11T05:58:58;11.77;;;8.77;;
14094;SDS011;18096;48.142;16.290;2022-12-11T06:01:27;18.23;;;9.90;;
14094;SDS011;18096;48.142;16.290;2022-12-11T06:03:55;23.05;;;9.40;;
14094;SDS011;18096;48.142;16.290;2022-12-11T06:06:22;12.45;;;7.80;;
14094;SDS011;18096;48.142;16.290;2022-12-11T06:08:53;10.35;;;8.20;;
14094;SDS011;18096;48.142;16.290;2022-12-11T06:11:22;14.07;;;9.10;;
14094;SDS011;18096;48.142;16.290;2022-12-11T06:13:49;15.40;;;8.77;;
14094;SDS011;18096;48.142;16.290;2022-12-11T06:16:15;14.93;;;8.52;;
14094;SDS011;18096;48.142;16.290;2022-12-11T06:18:41;21.48;;;10.48;;
14094;SDS011;18096;48.142;16.290;2022-12-11T06:21:12;12.50;;;8.90;;
14094;SDS011;18096;48.142;16.290;2022-12-11T06:23:38;14.85;;;9.60;;
14094;SDS011;18096;48.142;16.290;2022-12-11T06:26:05;13.75;;;9.10;;
14094;SDS011;18096;48.142;16.290;2022-12-11T06:28:31;19.10;;;9.73;;
14094;SDS011;18096;48.142;16.290;2022-12-11T06:30:59;15.90;;;10.60;;
14094;SDS011;18096;48.142;16.290;2022-12-11T06:33:25;15.70;;;8.70;;
14094;SDS011;18096;48.142;16.290;2022-12-11T06:35:51;14.10;;;9.68;;
14094;SDS011;18096;48.142;16.290;2022-12-11T06:38:17;20.55;;;10.15;;
14094;SDS011;18096;48.142;16.290;2022-12-11T06:40:43;14.35;;;9.13;;
14094;SDS011;18096;48.142;16.290;2022-12-11T06:43:09;12.83;;;9.03;;
14094;SDS011;18096;48.142;16.290;2022-12-11T06:45:37;11.60;;;8.30;;
14094;SDS011;18096;48.142;16.290;2022-12-11T06:48:03;12.25;;;8.68;;
14094;SDS011;18096;48.142;16.290;2022-12-11T06:50:29;17.42;;;8.55;;
14094;SDS011;18096;48.142;16.290;2022-12-11T06:52:57;13.02;;;8.20;;
14094;SDS011;18096;48.142;16.290;2022-12-11T06:55:23;9.77;;;7.93;;
14094;SDS011;18096;48.142;16.290;2022-12-11T06:57:49;11.37;;;8.40;;
14094;SDS011;18096;48.142;16.290;2022-12-11T07:00:14;9.60;;;7.50;;
14094;SDS011;18096;48.142;16.290;2022-12-11T07:02:40;11.80;;;7.77;;
14094;SDS011;18096;48.142;16.290;2022-12-11T07:05:06;9.10;;;6.60;;
14094;SDS011;18096;48.142;16.290;2022-12-11T07:07:32;8.80;;;6.40;;
14094;SDS011;18096;48.142;16.290;2022-12-11T07:09:58;10.38;;;6.80;;
14094;SDS011;18096;48.142;16.290;2022-12-11T07:12:24;12.95;;;7.55;;
14094;SDS011;18096;48.142;16.290;2022-12-11T07:14:49;8.88;;;6.57;;
14094;SDS011;18096;48.142;16.290;2022-12-11T07:17:15;11.60;;;6.87;;
14094;SDS011;18096;48.142;16.290;2022-12-11T07:19:41;7.57;;;6.27;;
14094;SDS011;18096;48.142;16.290;2022-12-11T07:22:06;10.57;;;6.38;;
14094;SDS011;18096;48.142;16.290;2022-12-11T07:24:32;9.30;;;5.97;;
14094;SDS011;18096;48.142;16.290;2022-12-11T07:26:58;6.80;;;6.10;;
14094;SDS011;18096;48.142;16.290;2022-12-11T07:29:23;13.50;;;6.63;;
14094;SDS011;18096;48.142;16.290;2022-12-11T07:31:49;8.93;;;6.73;;
14094;SDS011;18096;48.142;16.290;2022-12-11T07:34:15;9.75;;;6.47;;
14094;SDS011;18096;48.142;16.290;2022-12-11T07:36:41;11.30;;;6.73;;
14094;SDS011;18096;48.142;16.290;2022-12-11T07:39:07;11.90;;;6.60;;
14094;SDS011;18096;48.142;16.290;2022-12-11T07:41:35;8.00;;;5.60;;
14094;SDS011;18096;48.142;16.290;2022-12-11T07:44:02;11.38;;;7.10;;
14094;SDS011;18096;48.142;16.290;2022-12-11T07:46:29;7.15;;;6.00;;
14094;SDS011;18096;48.142;16.290;2022-12-11T07:48:56;9.35;;;7.00;;
14094;SDS011;18096;48.142;16.290;2022-12-11T07:51:23;8.50;;;6.00;;
14094;SDS011;18096;48.142;16.290;2022-12-11T07:53:52;9.10;;;6.45;;
14094;SDS011;18096;48.142;16.290;2022-12-11T07:56:20;10.97;;;6.30;;
14094;SDS011;18096;48.142;16.290;2022-12-11T07:58:46;10.80;;;6.28;;
14094;SDS011;18096;48.142;16.290;2022-12-11T08:01:17;5.85;;;5.20;;
14094;SDS011;18096;48.142;16.290;2022-12-11T08:03:44;7.55;;;6.15;;
14094;SDS011;18096;48.142;16.290;2022-12-11T08:06:10;13.63;;;6.68;;
14094;SDS011;18096;48.142;16.290;2022-12-11T08:08:37;8.02;;;6.38;;
14094;SDS011;18096;48.142;16.290;2022-12-11T08:11:04;8.40;;;5.90;;
14094;SDS011;18096;48.142;16.290;2022-12-11T08:13:31;9.23;;;6.05;;
14094;SDS011;18096;48.142;16.290;2022-12-11T08:15:58;12.48;;;5.85;;
14094;SDS011;18096;48.142;16.290;2022-12-11T08:18:28;6.47;;;5.72;;
14094;SDS011;18096;48.142;16.290;2022-12-11T08:20:54;11.60;;;7.05;;
14094;SDS011;18096;48.142;16.290;2022-12-11T08:23:20;6.72;;;6.07;;
14094;SDS011;18096;48.142;16.290;2022-12-11T08:25:45;7.07;;;5.60;;
14094;SDS011;18096;48.142;16.290;2022-12-11T08:28:11;7.72;;;5.78;;
14094;SDS011;18096;48.142;16.290;2022-12-11T08:30:37;7.00;;;4.80;;
14094;SDS011;18096;48.142;16.290;2022-12-11T08:33:04;6.15;;;5.55;;
14094;SDS011;18096;48.142;16.290;2022-12-11T08:35:30;8.85;;;5.63;;
14094;SDS011;18096;48.142;16.290;2022-12-11T08:37:56;8.20;;;5.32;;
14094;SDS011;18096;48.142;16.290;2022-12-11T08:40:22;9.00;;;6.30;;
14094;SDS011;18096;48.142;16.290;2022-12-11T08:42:47;7.60;;;5.70;;
14094;SDS011;18096;48.142;16.290;2022-12-11T08:45:13;7.10;;;5.82;;
14094;SDS011;18096;48.142;16.290;2022-12-11T08:47:40;9.00;;;6.20;;
14094;SDS011;18096;48.142;16.290;2022-12-11T08:50:06;11.80;;;6.40;;
14094;SDS011;18096;48.142;16.290;2022-12-11T08:52:33;8.73;;;6.20;;
14094;SDS011;18096;48.142;16.290;2022-12-11T08:54:59;7.72;;;6.00;;
14094;SDS011;18096;48.142;16.290;2022-12-11T08:57:24;10.70;;;5.70;;
14094;SDS011;18096;48.142;16.290;2022-12-11T08:59:52;10.40;;;7.10;;
14094;SDS011;18096;48.142;16.290;2022-12-11T09:02:17;7.97;;;6.03;;
14094;SDS011;18096;48.142;16.290;2022-12-11T09:04:43;6.00;;;5.40;;
14094;SDS011;18096;48.142;16.290;2022-12-11T09:07:09;7.50;;;5.57;;
14094;SDS011;18096;48.142;16.290;2022-12-11T09:09:34;8.70;;;5.72;;
14094;SDS011;18096;48.142;16.290;2022-12-11T09:12:00;10.73;;;6.23;;
14094;SDS011;18096;48.142;16.290;2022-12-11T09:14:28;6.95;;;6.07;;
14094;SDS011;18096;48.142;16.290;2022-12-11T09:16:54;6.18;;;5.50;;
14094;SDS011;18096;48.142;16.290;2022-12-11T09:19:20;11.05;;;6.88;;
14094;SDS011;18096;48.142;16.290;2022-12-11T09:21:46;9.10;;;5.60;;
14094;SDS011;18096;48.142;16.290;2022-12-11T09:24:12;6.15;;;5.25;;
14094;SDS011;18096;48.142;16.290;2022-12-11T09:26:38;9.20;;;6.15;;
14094;SDS011;18096;48.142;16.290;2022-12-11T09:29:04;9.23;;;6.32;;
14094;SDS011;18096;48.142;16.290;2022-12-11T09:31:31;13.88;;;6.70;;
14094;SDS011;18096;48.142;16.290;2022-12-11T09:34:01;10.07;;;6.22;;
14094;SDS011;18096;48.142;16.290;2022-12-11T09:36:31;8.50;;;5.50;;
14094;SDS011;18096;48.142;16.290;2022-12-11T09:39:00;6.95;;;5.20;;
14094;SDS011;18096;48.142;16.290;2022-12-11T09:46:43;8.07;;;5.57;;
14094;SDS011;18096;48.142;16.290;2022-12-11T09:49:25;6.55;;;5.47;;
14094;SDS011;18096;48.142;16.290;2022-12-11T09:51:57;6.35;;;5.75;;
14094;SDS011;18096;48.142;16.290;2022-12-11T09:54:48;11.95;;;5.90;;
14094;SDS011;18096;48.142;16.290;2022-12-11T09:57:19;8.70;;;5.70;;
14094;SDS011;18096;48.142;16.290;2022-12-11T10:17:26;13.10;;;5.40;;
14094;SDS011;18096;48.142;16.290;2022-12-11T10:19:55;5.38;;;4.25;;
14094;SDS011;18096;48.142;16.290;2022-12-11T10:22:28;7.13;;;5.45;;
14094;SDS011;18096;48.142;16.290;2022-12-11T10:24:57;6.50;;;4.80;;
14094;SDS011;18096;48.142;16.290;2022-12-11T10:27:31;5.07;;;4.57;;
14094;SDS011;18096;48.142;16.290;2022-12-11T10:30:15;4.80;;;4.40;;
14094;SDS011;18096;48.142;16.290;2022-12-11T10:35:51;4.55;;;4.15;;
14094;SDS011;18096;48.142;16.290;2022-12-11T10:40:58;6.85;;;4.38;;
14094;SDS011;18096;48.142;16.290;2022-12-11T10:43:32;5.82;;;4.47;;
14094;SDS011;18096;48.142;16.290;2022-12-11T10:45:58;5.97;;;5.10;;
14094;SDS011;18096;48.142;16.290;2022-12-11T10:48:24;5.10;;;4.50;;
14094;SDS011;18096;48.142;16.290;2022-12-11T10:50:59;5.07;;;4.57;;
14094;SDS011;18096;48.142;16.290;2022-12-11T10:53:28;7.50;;;4.38;;
14094;SDS011;18096;48.142;16.290;2022-12-11T10:55:54;4.20;;;3.78;;
14094;SDS011;18096;48.142;16.290;2022-12-11T10:58:23;6.15;;;4.63;;
14094;SDS011;18096;48.142;16.290;2022-12-11T11:01:25;5.57;;;4.47;;
14094;SDS011;18096;48.142;16.290;2022-12-11T11:04:13;5.47;;;4.68;;
14094;SDS011;18096;48.142;16.290;2022-12-11T11:06:42;7.03;;;4.53;;
14094;SDS011;18096;48.142;16.290;2022-12-11T11:09:27;6.30;;;5.35;;
14094;SDS011;18096;48.142;16.290;2022-12-11T11:11:57;7.80;;;4.95;;
14094;SDS011;18096;48.142;16.290;2022-12-11T11:14:23;7.30;;;4.60;;
14094;SDS011;18096;48.142;16.290;2022-12-11T11:16:50;5.38;;;4.20;;
14094;SDS011;18096;48.142;16.290;2022-12-11T11:21:56;7.77;;;4.20;;
14094;SDS011;18096;48.142;16.290;2022-12-11T11:24:31;4.07;;;3.83;;
14094;SDS011;18096;48.142;16.290;2022-12-11T11:27:02;3.63;;;3.40;;
14094;SDS011;18096;48.142;16.290;2022-12-11T11:29:55;6.30;;;3.93;;
14094;SDS011;18096;48.142;16.290;2022-12-11T11:32:38;3.37;;;2.60;;
14094;SDS011;18096;48.142;16.290;2022-12-11T11:35:13;2.80;;;2.70;;
14094;SDS011;18096;48.142;16.290;2022-12-11T11:37:46;3.67;;;3.33;;
14094;SDS011;18096;48.142;16.290;2022-12-11T11:40:30;5.53;;;3.70;;
14094;SDS011;18096;48.142;16.290;2022-12-11T11:45:51;3.87;;;3.50;;
14094;SDS011;18096;48.142;16.290;2022-12-11T11:50:53;2.33;;;2.27;;
14094;SDS011;18096;48.142;16.290;2022-12-11T11:53:26;2.70;;;2.50;;
14094;SDS011;18096;48.142;16.290;2022-12-11T11:56:16;13.33;;;3.73;;
14094;SDS011;18096;48.142;16.290;2022-12-11T12:01:27;4.23;;;2.63;;
14094;SDS011;18096;48.142;16.290;2022-12-11T12:03:53;4.47;;;4.07;;
14094;SDS011;18096;48.142;16.290;2022-12-11T12:14:55;6.88;;;4.07;;
14094;SDS011;18096;48.142;16.290;2022-12-11T12:17:34;3.10;;;3.00;;
14094;SDS011;18096;48.142;16.290;2022-12-11T12:20:31;4.13;;;3.83;;
14094;SDS011;18096;48.142;16.290;2022-12-11T12:23:06;4.03;;;3.67;;
14094;SDS011;18096;48.142;16.290;2022-12-11T12:25:47;3.37;;;3.00;;
14094;SDS011;18096;48.142;16.290;2022-12-11T12:28:40;4.60;;;3.23;;
14094;SDS011;18096;48.142;16.290;2022-12-11T12:44:05;2.73;;;2.63;;
14094;SDS011;18096;48.142;16.290;2022-12-11T12:46:45;3.77;;;3.47;;
14094;SDS011;18096;48.142;16.290;2022-12-11T12:51:53;2.30;;;2.20;;
14094;SDS011;18096;48.142;16.290;2022-12-11T12:54:19;3.87;;;3.33;;
14094;SDS011;18096;48.142;16.290;2022-12-11T12:56:46;8.20;;;2.53;;
14094;SDS011;18096;48.142;16.290;2022-12-11T12:59:20;3.20;;;3.00;;
14094;SDS011;18096;48.142;16.290;2022-12-11T13:01:52;3.27;;;3.07;;
14094;SDS011;18096;48.142;16.290;2022-12-11T13:04:40;3.63;;;3.33;;
14094;SDS011;18096;48.142;16.290;2022-12-11T13:07:18;3.23;;;2.70;;
14094;SDS011;18096;48.142;16.290;2022-12-11T13:10:04;4.97;;;4.57;;
14094;SDS011;18096;48.142;16.290;2022-12-11T13:12:49;3.43;;;3.23;;
14094;SDS011;18096;48.142;16.290;2022-12-11T13:18:02;9.20;;;6.50;;
14094;SDS011;18096;48.142;16.290;2022-12-11T13:20:32;6.63;;;5.00;;
14094;SDS011;18096;48.142;16.290;2022-12-11T13:25:30;5.80;;;5.37;;
14094;SDS011;18096;48.142;16.290;2022-12-11T13:33:42;5.27;;;4.87;;
14094;SDS011;18096;48.142;16.290;2022-12-11T13:38:38;5.80;;;5.17;;
14094;SDS011;18096;48.142;16.290;2022-12-11T13:41:10;6.40;;;5.90;;
14094;SDS011;18096;48.142;16.290;2022-12-11T13:43:37;6.27;;;5.70;;
14094;SDS011;18096;48.142;16.290;2022-12-11T13:46:07;8.53;;;5.87;;
14094;SDS011;18096;48.142;16.290;2022-12-11T13:48:39;5.63;;;5.20;;
14094;SDS011;18096;48.142;16.290;2022-12-11T13:51:15;5.33;;;4.93;;
14094;SDS011;18096;48.142;16.290;2022-12-11T13:53:42;7.13;;;6.47;;
14094;SDS011;18096;48.142;16.290;2022-12-11T13:56:15;12.43;;;6.80;;
14094;SDS011;18096;48.142;16.290;2022-12-11T13:58:46;12.53;;;6.00;;
14094;SDS011;18096;48.142;16.290;2022-12-11T14:01:28;8.40;;;7.27;;
14094;SDS011;18096;48.142;16.290;2022-12-11T14:04:05;6.17;;;5.60;;
14094;SDS011;18096;48.142;16.290;2022-12-11T14:06:34;7.10;;;5.13;;
14094;SDS011;18096;48.142;16.290;2022-12-11T14:09:02;7.43;;;6.73;;
14094;SDS011;18096;48.142;16.290;2022-12-11T14:11:32;11.20;;;7.07;;
14094;SDS011;18096;48.142;16.290;2022-12-11T14:14:00;11.63;;;7.03;;
14094;SDS011;18096;48.142;16.290;2022-12-11T14:16:29;8.60;;;5.80;;
14094;SDS011;18096;48.142;16.290;2022-12-11T14:18:57;5.30;;;5.00;;
14094;SDS011;18096;48.142;16.290;2022-12-11T14:21:28;6.73;;;5.67;;
14094;SDS011;18096;48.142;16.290;2022-12-11T14:23:55;7.03;;;6.47;;
14094;SDS011;18096;48.142;16.290;2022-12-11T14:26:26;8.93;;;7.30;;
14094;SDS011;18096;48.142;16.290;2022-12-11T14:28:53;6.83;;;6.10;;
14094;SDS011;18096;48.142;16.290;2022-12-11T14:31:27;7.60;;;6.00;;
14094;SDS011;18096;48.142;16.290;2022-12-11T14:33:56;6.07;;;5.20;;
14094;SDS011;18096;48.142;16.290;2022-12-11T14:36:30;11.20;;;5.93;;
14094;SDS011;18096;48.142;16.290;2022-12-11T14:39:20;5.47;;;4.70;;
14094;SDS011;18096;48.142;16.290;2022-12-11T14:44:18;7.03;;;6.30;;
14094;SDS011;18096;48.142;16.290;2022-12-11T14:49:22;5.10;;;4.70;;
14094;SDS011;18096;48.142;16.290;2022-12-11T14:52:12;4.73;;;4.30;;
14094;SDS011;18096;48.142;16.290;2022-12-11T14:54:43;8.20;;;4.23;;
14094;SDS011;18096;48.142;16.290;2022-12-11T14:57:17;4.17;;;3.97;;
14094;SDS011;18096;48.142;16.290;2022-12-11T14:59:45;5.10;;;4.70;;
14094;SDS011;18096;48.142;16.290;2022-12-11T15:02:19;5.53;;;5.13;;
14094;SDS011;18096;48.142;16.290;2022-12-11T15:05:13;5.27;;;4.77;;
14094;SDS011;18096;48.142;16.290;2022-12-11T15:07:42;4.53;;;4.07;;
14094;SDS011;18096;48.142;16.290;2022-12-11T15:10:20;6.97;;;5.50;;
14094;SDS011;18096;48.142;16.290;2022-12-11T15:12:47;5.17;;;4.77;;
14094;SDS011;18096;48.142;16.290;2022-12-11T15:15:14;5.87;;;4.60;;
14094;SDS011;18096;48.142;16.290;2022-12-11T15:17:40;4.43;;;4.03;;
14094;SDS011;18096;48.142;16.290;2022-12-11T15:20:07;3.93;;;3.63;;
14094;SDS011;18096;48.142;16.290;2022-12-11T15:22:40;5.37;;;4.97;;
14094;SDS011;18096;48.142;16.290;2022-12-11T15:25:15;7.83;;;5.17;;
14094;SDS011;18096;48.142;16.290;2022-12-11T15:27:50;4.90;;;4.33;;
14094;SDS011;18096;48.142;16.290;2022-12-11T15:33:00;5.23;;;4.83;;
14094;SDS011;18096;48.142;16.290;2022-12-11T15:35:27;8.67;;;6.57;;
14094;SDS011;18096;48.142;16.290;2022-12-11T15:37:53;4.53;;;4.23;;
14094;SDS011;18096;48.142;16.290;2022-12-11T15:40:20;7.90;;;4.63;;
14094;SDS011;18096;48.142;16.290;2022-12-11T15:42:45;7.60;;;6.23;;
14094;SDS011;18096;48.142;16.290;2022-12-11T15:45:15;5.73;;;5.23;;
14094;SDS011;18096;48.142;16.290;2022-12-11T15:47:49;8.50;;;5.07;;
14094;SDS011;18096;48.142;16.290;2022-12-11T15:52:49;4.00;;;3.80;;
14094;SDS011;18096;48.142;16.290;2022-12-11T15:55:17;4.43;;;4.03;;
14094;SDS011;18096;48.142;16.290;2022-12-11T15:57:48;5.33;;;5.03;;
14094;SDS011;18096;48.142;16.290;2022-12-11T16:00:26;6.67;;;4.23;;
14094;SDS011;18096;48.142;16.290;2022-12-11T16:02:52;8.50;;;4.60;;
14094;SDS011;18096;48.142;16.290;2022-12-11T16:05:19;4.63;;;4.23;;
14094;SDS011;18096;48.142;16.290;2022-12-11T16:07:46;6.63;;;6.03;;
14094;SDS011;18096;48.142;16.290;2022-12-11T16:10:13;5.60;;;4.90;;
14094;SDS011;18096;48.142;16.290;2022-12-11T16:12:41;5.83;;;5.30;;
14094;SDS011;18096;48.142;16.290;2022-12-11T16:15:08;4.10;;;3.77;;
14094;SDS011;18096;48.142;16.290;2022-12-11T16:17:35;3.63;;;3.43;;
14094;SDS011;18096;48.142;16.290;2022-12-11T16:20:00;3.10;;;3.00;;
14094;SDS011;18096;48.142;16.290;2022-12-11T16:22:26;5.50;;;4.20;;
14094;SDS011;18096;48.142;16.290;2022-12-11T16:24:53;8.70;;;4.70;;
14094;SDS011;18096;48.142;16.290;2022-12-11T16:27:19;12.50;;;4.97;;
14094;SDS011;18096;48.142;16.290;2022-12-11T16:29:46;4.40;;;3.63;;
14094;SDS011;18096;48.142;16.290;2022-12-11T16:32:12;6.97;;;4.93;;
14094;SDS011;18096;48.142;16.290;2022-12-11T16:34:39;3.60;;;3.40;;
14094;SDS011;18096;48.142;16.290;2022-12-11T16:37:06;4.53;;;4.20;;